createdAt,value
2023-04-29T00:01:22.069Z,21.42
2023-04-29T00:03:50.707Z,22.27
2023-04-29T00:06:19.173Z,25.45
2023-04-29T00:08:47.516Z,29.20
2023-04-29T00:11:16.964Z,29.52
2023-04-29T00:13:45.152Z,36.17
2023-04-29T00:16:13.933Z,26.45
2023-04-29T00:18:42.639Z,29.73
2023-04-29T00:21:11.078Z,27.40
2023-04-29T00:23:39.163Z,26.55
2023-04-29T00:26:07.377Z,29.80
2023-04-29T00:28:37.121Z,26.85
2023-04-29T00:31:05.292Z,35.78
2023-04-29T00:33:33.754Z,28.45
2023-04-29T00:36:02.278Z,25.92
2023-04-29T00:38:30.793Z,34.30
2023-04-29T00:40:59.139Z,23.15
2023-04-29T00:43:27.428Z,26.38
2023-04-29T00:45:57.766Z,27.45
2023-04-29T00:48:27.350Z,29.33
2023-04-29T00:50:56.418Z,26.73
2023-04-29T00:53:24.887Z,23.98
2023-04-29T00:55:53.453Z,27.20
2023-04-29T00:58:22.847Z,28.80
2023-04-29T01:00:51.213Z,28.05
2023-04-29T01:03:20.922Z,30.20
2023-04-29T01:06:01.828Z,29.75
2023-04-29T01:08:39.170Z,30.00
2023-04-29T01:11:11.047Z,26.80
2023-04-29T01:13:46.853Z,31.25
2023-04-29T01:16:22.790Z,33.97
2023-04-29T01:18:56.468Z,33.92
2023-04-29T01:21:31.950Z,28.73
2023-04-29T01:24:02.007Z,29.10
2023-04-29T01:26:35.558Z,34.45
2023-04-29T01:29:33.960Z,38.78
2023-04-29T01:32:09.108Z,34.47
2023-04-29T01:34:45.635Z,36.80
2023-04-29T01:37:19.468Z,30.98
2023-04-29T01:39:59.520Z,33.35
2023-04-29T01:42:37.720Z,37.10
2023-04-29T01:45:12.737Z,36.10
2023-04-29T01:47:41.856Z,34.42
2023-04-29T01:50:10.788Z,38.17
2023-04-29T01:52:39.830Z,37.55
2023-04-29T01:55:11.244Z,36.20
2023-04-29T01:57:47.353Z,34.55
2023-04-29T02:00:29.320Z,35.72
2023-04-29T02:02:57.990Z,32.67
2023-04-29T02:05:36.021Z,35.58
2023-04-29T02:08:04.545Z,41.58
2023-04-29T02:10:35.996Z,38.03
2023-04-29T02:13:14.951Z,43.33
2023-04-29T02:15:43.766Z,42.42
2023-04-29T02:18:11.941Z,40.95
2023-04-29T02:20:42.188Z,38.10
2023-04-29T02:23:10.712Z,39.30
2023-04-29T02:25:40.476Z,43.25
2023-04-29T02:28:09.898Z,42.50
2023-04-29T02:30:41.102Z,41.22
2023-04-29T02:33:09.569Z,44.22
2023-04-29T02:35:37.930Z,46.13
2023-04-29T02:38:06.071Z,42.05
2023-04-29T02:40:34.210Z,45.28
2023-04-29T02:43:03.744Z,42.67
2023-04-29T02:45:32.048Z,49.85
2023-04-29T02:48:00.851Z,43.28
2023-04-29T02:50:47.896Z,45.20
2023-04-29T02:53:34.505Z,44.85
2023-04-29T02:56:02.848Z,43.95
2023-04-29T02:58:32.510Z,43.97
2023-04-29T03:01:00.797Z,40.70
2023-04-29T03:03:29.228Z,42.88
2023-04-29T03:05:57.642Z,39.88
2023-04-29T03:08:26.118Z,42.70
2023-04-29T03:10:54.266Z,48.85
2023-04-29T03:13:22.336Z,43.40
2023-04-29T03:15:52.070Z,49.58
2023-04-29T03:18:20.133Z,44.65
2023-04-29T03:20:49.379Z,43.03
2023-04-29T03:23:17.688Z,43.22
2023-04-29T03:25:45.984Z,47.85
2023-04-29T03:28:15.075Z,44.97
2023-04-29T03:30:43.386Z,40.45
2023-04-29T03:33:13.049Z,44.80
2023-04-29T03:35:41.237Z,52.30
2023-04-29T03:38:21.804Z,44.67
2023-04-29T03:40:50.622Z,52.28
2023-04-29T03:43:19.725Z,51.70
2023-04-29T03:45:48.244Z,47.28
2023-04-29T03:48:21.549Z,48.00
2023-04-29T03:50:50.324Z,41.83
2023-04-29T03:53:18.603Z,38.20
2023-04-29T03:55:48.604Z,37.25
2023-04-29T03:58:17.646Z,38.70
2023-04-29T04:00:46.259Z,35.85
2023-04-29T04:03:22.954Z,39.05
2023-04-29T04:05:51.822Z,35.25
2023-04-29T04:08:19.928Z,37.33
2023-04-29T04:11:04.767Z,40.85
2023-04-29T04:13:44.499Z,34.72
2023-04-29T04:16:13.057Z,36.92
2023-04-29T04:18:42.886Z,35.38
2023-04-29T04:21:12.264Z,38.08
2023-04-29T04:23:44.199Z,35.83
2023-04-29T04:26:15.663Z,36.10
2023-04-29T04:29:03.094Z,38.55
2023-04-29T04:31:41.554Z,38.08
2023-04-29T04:34:12.268Z,40.30
2023-04-29T04:36:41.478Z,38.08
2023-04-29T04:39:09.662Z,33.10
2023-04-29T04:41:38.008Z,36.15
2023-04-29T04:44:06.511Z,34.63
2023-04-29T04:46:43.410Z,35.33
2023-04-29T04:49:30.071Z,29.52
2023-04-29T04:51:58.822Z,34.22
2023-04-29T04:54:27.293Z,30.63
2023-04-29T04:57:06.276Z,31.45
2023-04-29T04:59:34.950Z,32.05
2023-04-29T05:02:04.374Z,31.65
2023-04-29T05:04:33.977Z,36.83
2023-04-29T05:07:02.414Z,28.70
2023-04-29T05:09:37.529Z,31.95
2023-04-29T05:12:05.987Z,29.73
2023-04-29T05:14:34.423Z,38.40
2023-04-29T05:17:03.170Z,31.00
2023-04-29T05:19:31.512Z,34.88
2023-04-29T05:22:01.350Z,33.80
2023-04-29T05:24:30.607Z,33.83
2023-04-29T05:26:58.757Z,38.80
2023-04-29T05:29:27.533Z,32.72
2023-04-29T05:32:00.023Z,30.83
2023-04-29T05:34:28.572Z,30.77
2023-04-29T05:36:57.566Z,30.95
2023-04-29T05:39:27.818Z,30.25
2023-04-29T05:42:07.981Z,33.97
2023-04-29T05:44:40.102Z,31.70
2023-04-29T05:47:08.391Z,27.90
2023-04-29T05:49:36.925Z,30.60
2023-04-29T05:52:06.742Z,24.92
2023-04-29T05:54:41.725Z,25.30
2023-04-29T05:57:10.030Z,24.75
2023-04-29T05:59:38.073Z,21.83
2023-04-29T06:02:07.553Z,21.52
2023-04-29T06:04:37.957Z,24.58
2023-04-29T06:07:18.894Z,17.40
2023-04-29T06:10:13.088Z,20.80
2023-04-29T06:12:44.091Z,16.30
2023-04-29T06:15:13.892Z,21.55
2023-04-29T06:17:42.439Z,19.75
2023-04-29T06:20:11.696Z,19.52
2023-04-29T06:22:41.270Z,21.55
2023-04-29T06:25:10.582Z,21.90
2023-04-29T06:27:51.047Z,24.17
2023-04-29T06:30:22.382Z,26.50
2023-04-29T06:32:50.616Z,18.08
2023-04-29T06:35:19.058Z,23.10
2023-04-29T06:38:08.305Z,23.92
2023-04-29T06:40:42.564Z,22.33
2023-04-29T06:43:17.929Z,25.63
2023-04-29T06:46:04.828Z,22.88
2023-04-29T06:48:41.904Z,20.98
2023-04-29T06:51:10.178Z,23.95
2023-04-29T06:53:39.756Z,20.75
2023-04-29T06:56:09.022Z,20.60
2023-04-29T06:58:38.610Z,15.75
2023-04-29T07:01:09.467Z,20.63
2023-04-29T07:03:38.067Z,20.90
2023-04-29T07:06:06.663Z,22.20
2023-04-29T07:08:34.913Z,21.40
2023-04-29T07:11:04.343Z,27.50
2023-04-29T07:13:32.856Z,27.15
2023-04-29T07:16:02.365Z,24.48
2023-04-29T07:18:30.414Z,28.02
2023-04-29T07:21:02.346Z,27.70
2023-04-29T07:23:30.582Z,22.85
2023-04-29T07:25:59.216Z,28.00
2023-04-29T07:28:27.956Z,27.25
2023-04-29T07:30:57.523Z,25.35
2023-04-29T07:33:27.231Z,30.35
2023-04-29T07:35:55.433Z,27.42
2023-04-29T07:38:23.755Z,24.58
2023-04-29T07:40:52.035Z,31.83
2023-04-29T07:43:20.494Z,33.78
2023-04-29T07:45:49.038Z,27.25
2023-04-29T07:48:17.358Z,26.45
2023-04-29T07:50:47.200Z,26.58
2023-04-29T07:53:17.489Z,25.77
2023-04-29T07:55:45.631Z,29.75
2023-04-29T07:58:14.186Z,26.58
2023-04-29T08:00:42.451Z,24.98
2023-04-29T08:03:11.231Z,28.38
2023-04-29T08:05:39.793Z,25.92
2023-04-29T08:08:09.655Z,24.90
2023-04-29T08:10:43.258Z,24.80
2023-04-29T08:13:11.608Z,27.70
2023-04-29T08:15:41.070Z,26.83
2023-04-29T08:18:09.283Z,28.05
2023-04-29T08:20:37.579Z,28.65
2023-04-29T08:23:05.922Z,37.13
2023-04-29T08:25:35.611Z,33.55
2023-04-29T08:28:04.099Z,35.08
2023-04-29T08:30:32.192Z,35.60
2023-04-29T08:33:00.620Z,35.55
2023-04-29T08:35:28.859Z,34.30
2023-04-29T08:37:57.859Z,32.25
2023-04-29T08:40:26.701Z,35.90
2023-04-29T08:42:57.186Z,37.40
2023-04-29T08:45:26.360Z,35.35
2023-04-29T08:47:56.597Z,34.08
2023-04-29T08:50:25.906Z,34.60
2023-04-29T08:52:54.690Z,36.88
2023-04-29T08:55:23.273Z,34.42
2023-04-29T08:57:53.940Z,35.28
2023-04-29T09:00:25.729Z,40.08
2023-04-29T09:02:57.786Z,35.85
2023-04-29T09:05:27.394Z,37.53
2023-04-29T09:07:59.759Z,39.97
2023-04-29T09:10:28.637Z,34.22
2023-04-29T09:12:58.278Z,32.33
2023-04-29T09:15:28.122Z,37.33
2023-04-29T09:17:57.418Z,35.53
2023-04-29T09:20:29.206Z,30.17
2023-04-29T09:22:59.228Z,34.97
2023-04-29T09:25:27.813Z,31.95
2023-04-29T09:27:57.170Z,28.80
2023-04-29T09:30:27.140Z,28.83
2023-04-29T09:33:07.608Z,28.58
2023-04-29T09:35:37.105Z,28.23
2023-04-29T09:38:13.622Z,27.48
2023-04-29T09:40:56.730Z,20.98
2023-04-29T09:43:26.524Z,23.08
2023-04-29T09:45:56.099Z,24.95
2023-04-29T09:48:33.767Z,15.50
2023-04-29T09:51:03.914Z,14.77
2023-04-29T09:53:33.084Z,18.63
2023-04-29T09:56:02.537Z,13.93
2023-04-29T09:58:34.202Z,13.48
2023-04-29T10:01:05.057Z,10.80
2023-04-29T10:03:35.177Z,11.80
2023-04-29T10:06:05.830Z,11.23
2023-04-29T10:08:35.394Z,9.02
2023-04-29T10:11:05.945Z,11.32
2023-04-29T10:13:38.555Z,9.18
2023-04-29T10:16:16.931Z,9.10
2023-04-29T10:18:53.454Z,8.60
2023-04-29T10:21:28.115Z,10.40
2023-04-29T10:23:58.688Z,11.27
2023-04-29T10:26:29.444Z,9.15
2023-04-29T10:29:00.025Z,7.80
2023-04-29T10:31:30.325Z,7.57
2023-04-29T10:34:00.608Z,7.72
2023-04-29T10:36:31.712Z,10.43
2023-04-29T10:39:06.208Z,9.40
2023-04-29T10:41:39.086Z,7.60
2023-04-29T10:44:07.741Z,7.38
2023-04-29T10:46:38.222Z,7.20
2023-04-29T10:49:08.346Z,8.30
2023-04-29T10:51:40.902Z,8.93
2023-04-29T10:54:11.129Z,9.90
2023-04-29T10:56:41.654Z,12.02
2023-04-29T10:59:14.459Z,10.05
2023-04-29T11:01:46.688Z,8.75
2023-04-29T11:04:15.402Z,13.05
2023-04-29T11:06:46.400Z,11.25
2023-04-29T11:09:16.960Z,11.60
2023-04-29T11:11:49.896Z,11.43
2023-04-29T11:14:26.320Z,8.40
2023-04-29T11:16:58.979Z,11.80
2023-04-29T11:19:32.830Z,8.80
2023-04-29T11:22:26.512Z,11.85
2023-04-29T11:24:58.079Z,11.32
2023-04-29T11:27:27.906Z,8.60
2023-04-29T11:29:58.860Z,9.00
2023-04-29T11:32:30.348Z,12.50
2023-04-29T11:35:09.925Z,8.43
2023-04-29T11:37:38.021Z,9.23
2023-04-29T11:40:07.907Z,8.23
2023-04-29T11:42:36.787Z,11.23
2023-04-29T11:45:06.995Z,9.00
2023-04-29T11:47:37.470Z,10.23
2023-04-29T11:50:06.417Z,10.38
2023-04-29T11:52:37.114Z,10.80
2023-04-29T11:55:07.674Z,11.75
2023-04-29T11:57:35.983Z,12.68
2023-04-29T12:00:07.385Z,11.73
2023-04-29T12:02:40.788Z,16.42
2023-04-29T12:05:10.247Z,19.25
2023-04-29T12:07:38.797Z,17.20
2023-04-29T12:10:10.918Z,19.45
2023-04-29T12:12:41.034Z,17.40
2023-04-29T12:15:10.665Z,21.63
2023-04-29T12:17:41.004Z,20.23
2023-04-29T12:20:12.035Z,21.08
2023-04-29T12:22:40.528Z,19.42
2023-04-29T12:25:09.843Z,22.58
2023-04-29T12:27:41.560Z,20.33
2023-04-29T12:30:11.412Z,23.67
2023-04-29T12:32:41.257Z,19.10
2023-04-29T12:35:17.596Z,16.88
2023-04-29T12:37:49.678Z,21.02
2023-04-29T12:40:20.459Z,19.42
2023-04-29T12:42:49.176Z,19.08
2023-04-29T12:45:31.743Z,21.50
2023-04-29T12:48:07.258Z,21.23
2023-04-29T12:50:39.284Z,18.98
2023-04-29T12:53:08.821Z,15.90
2023-04-29T12:55:38.462Z,18.20
2023-04-29T12:58:07.537Z,16.85
2023-04-29T13:00:37.552Z,17.60
2023-04-29T13:03:07.480Z,20.52
2023-04-29T13:05:36.268Z,18.67
2023-04-29T13:08:06.011Z,15.02
2023-04-29T13:10:34.918Z,13.73
2023-04-29T13:13:02.980Z,11.85
2023-04-29T13:15:31.456Z,10.93
2023-04-29T13:17:59.706Z,9.85
2023-04-29T13:20:29.582Z,9.85
2023-04-29T13:22:57.706Z,10.77
2023-04-29T13:25:25.874Z,11.07
2023-04-29T13:27:54.936Z,9.32
2023-04-29T13:30:23.835Z,10.32
2023-04-29T13:32:55.443Z,9.52
2023-04-29T13:35:27.183Z,9.40
2023-04-29T13:37:57.134Z,11.00
2023-04-29T13:40:28.060Z,10.32
2023-04-29T13:43:04.380Z,8.68
2023-04-29T13:45:38.883Z,9.25
2023-04-29T13:48:20.836Z,8.20
2023-04-29T13:59:08.656Z,12.75
2023-04-29T14:02:08.056Z,9.23
2023-04-29T14:04:07.036Z,11.38
2023-04-29T14:06:35.272Z,9.20
2023-04-29T14:09:05.031Z,10.25
2023-04-29T14:11:36.833Z,10.07
2023-04-29T14:14:05.609Z,11.00
2023-04-29T14:16:34.003Z,8.05
2023-04-29T14:19:03.938Z,12.00
2023-04-29T14:21:33.532Z,10.05
2023-04-29T14:24:03.441Z,10.50
2023-04-29T14:26:33.150Z,9.60
2023-04-29T14:29:01.464Z,10.65
2023-04-29T14:31:31.291Z,9.18
2023-04-29T14:34:00.423Z,9.75
2023-04-29T14:36:28.941Z,11.63
2023-04-29T14:38:57.197Z,10.82
2023-04-29T14:41:25.706Z,12.65
2023-04-29T14:43:55.306Z,11.82
2023-04-29T14:46:23.783Z,13.23
2023-04-29T14:48:52.014Z,16.40
2023-04-29T14:51:20.518Z,14.02
2023-04-29T14:53:48.721Z,14.30
2023-04-29T14:57:30.379Z,16.83
2023-04-29T15:04:04.606Z,20.42
2023-04-29T15:07:46.262Z,22.80
2023-04-29T15:42:31.087Z,18.85
2023-04-29T15:44:59.322Z,16.55
2023-04-29T15:47:27.604Z,17.23
2023-04-29T15:49:56.753Z,14.80
2023-04-29T15:52:25.154Z,16.92
2023-04-29T15:54:53.222Z,19.88
2023-04-29T15:57:21.485Z,18.52
2023-04-29T15:59:51.828Z,16.38
2023-04-29T16:02:21.285Z,18.13
2023-04-29T16:04:49.686Z,21.88
2023-04-29T16:07:18.393Z,22.42
2023-04-29T16:09:46.717Z,26.30
2023-04-29T16:12:15.118Z,24.15
2023-04-29T16:14:43.776Z,27.25
2023-04-29T16:17:13.832Z,26.00
2023-04-29T16:19:42.023Z,33.67
2023-04-29T16:22:10.264Z,33.40
2023-04-29T16:25:04.257Z,37.00
2023-04-29T16:27:32.613Z,38.03
2023-04-29T16:30:01.037Z,42.55
2023-04-29T16:32:31.535Z,35.67
2023-04-29T16:35:01.363Z,38.10
2023-04-29T16:37:33.322Z,46.45
2023-04-29T16:40:02.000Z,32.30
2023-04-29T16:42:30.129Z,41.08
2023-04-29T16:44:58.440Z,44.45
2023-04-29T16:47:27.662Z,36.90
2023-04-29T16:49:57.829Z,43.50
2023-04-29T16:52:26.029Z,47.95
2023-04-29T16:54:56.365Z,50.85
2023-04-29T16:57:26.633Z,45.05
2023-04-29T16:59:56.504Z,43.97
2023-04-29T17:02:25.087Z,47.25
2023-04-29T17:04:53.659Z,44.63
2023-04-29T17:07:23.961Z,42.35
2023-04-29T17:09:52.707Z,49.00
2023-04-29T17:12:21.044Z,44.85
2023-04-29T17:14:49.456Z,50.08
2023-04-29T17:17:18.098Z,42.58
2023-04-29T17:19:50.098Z,42.20
2023-04-29T17:22:18.520Z,43.80
2023-04-29T17:24:49.074Z,43.60
2023-04-29T17:27:17.415Z,42.75
2023-04-29T17:29:45.793Z,40.38
2023-04-29T17:32:17.319Z,46.75
2023-04-29T17:34:45.488Z,39.00
2023-04-29T17:37:14.097Z,42.55
2023-04-29T17:39:42.349Z,42.03
2023-04-29T17:42:12.174Z,40.17
2023-04-29T17:44:40.363Z,41.00
2023-04-29T17:47:11.021Z,42.25
2023-04-29T17:49:40.272Z,44.33
2023-04-29T17:52:08.944Z,39.17
2023-04-29T17:54:39.814Z,54.22
2023-04-29T17:57:08.744Z,44.33
2023-04-29T17:59:38.966Z,44.42
2023-04-29T18:02:07.281Z,44.10
2023-04-29T18:04:37.412Z,44.45
2023-04-29T18:07:06.763Z,42.30
2023-04-29T18:09:35.855Z,49.17
2023-04-29T18:12:05.047Z,46.30
2023-04-29T18:14:33.329Z,42.75
2023-04-29T18:17:03.331Z,46.65
2023-04-29T18:19:31.491Z,41.65
2023-04-29T18:22:01.420Z,45.95
2023-04-29T18:24:29.729Z,58.45
2023-04-29T18:26:58.280Z,52.30
2023-04-29T18:29:26.969Z,51.05
2023-04-29T18:31:55.940Z,46.45
2023-04-29T18:34:26.228Z,47.35
2023-04-29T18:36:54.924Z,42.38
2023-04-29T18:39:23.018Z,43.72
2023-04-29T18:41:51.190Z,45.38
2023-04-29T18:44:19.461Z,59.75
2023-04-29T18:46:47.552Z,49.55
2023-04-29T18:49:17.011Z,45.25
2023-04-29T18:51:47.509Z,41.58
2023-04-29T18:54:16.916Z,44.95
2023-04-29T18:56:47.428Z,50.22
2023-04-29T18:59:19.326Z,41.28
2023-04-29T19:01:49.000Z,42.17
2023-04-29T19:04:17.687Z,46.17
2023-04-29T19:06:48.190Z,44.47
2023-04-29T19:09:16.329Z,41.80
2023-04-29T19:11:44.364Z,38.92
2023-04-29T19:14:12.525Z,39.15
2023-04-29T19:16:40.624Z,35.70
2023-04-29T19:19:08.987Z,40.58
2023-04-29T19:21:37.878Z,32.42
2023-04-29T19:24:07.824Z,35.30
2023-04-29T19:26:36.809Z,41.28
2023-04-29T19:29:07.426Z,36.28
2023-04-29T19:31:35.721Z,48.13
2023-04-29T19:34:03.931Z,42.65
2023-04-29T19:36:33.258Z,44.65
2023-04-29T19:39:02.457Z,39.00
2023-04-29T19:41:34.712Z,38.92
2023-04-29T19:44:03.525Z,41.80
2023-04-29T19:46:31.880Z,34.72
2023-04-29T19:49:00.067Z,33.13
2023-04-29T19:51:28.709Z,37.92
2023-04-29T19:54:00.170Z,36.47
2023-04-29T19:56:28.367Z,38.67
2023-04-29T19:58:57.884Z,43.67
2023-04-29T20:01:26.129Z,41.80
2023-04-29T20:03:54.442Z,34.00
2023-04-29T20:06:22.607Z,36.08
2023-04-29T20:08:50.791Z,38.83
2023-04-29T20:11:18.826Z,35.08
2023-04-29T20:13:47.793Z,38.65
2023-04-29T20:16:17.577Z,34.22
2023-04-29T20:18:45.763Z,39.72
2023-04-29T20:21:14.373Z,34.92
2023-04-29T20:23:42.409Z,39.88
2023-04-29T20:26:10.994Z,36.60
2023-04-29T20:28:39.903Z,36.40
2023-04-29T20:31:08.649Z,38.97
2023-04-29T20:33:38.593Z,38.58
2023-04-29T20:36:07.530Z,40.17
2023-04-29T20:38:36.141Z,34.70
2023-04-29T20:41:05.656Z,41.80
2023-04-29T20:43:33.828Z,41.22
2023-04-29T20:46:03.140Z,36.53
2023-04-29T20:48:31.604Z,40.17
2023-04-29T20:51:01.575Z,35.67
2023-04-29T20:53:31.436Z,36.30
2023-04-29T20:56:00.159Z,38.72
2023-04-29T20:58:28.321Z,36.78
2023-04-29T21:00:56.578Z,35.35
2023-04-29T21:03:26.065Z,39.95
2023-04-29T21:05:55.227Z,35.58
2023-04-29T21:08:24.940Z,38.85
2023-04-29T21:10:53.217Z,36.60
2023-04-29T21:13:21.631Z,32.30
2023-04-29T21:15:49.837Z,39.45
2023-04-29T21:18:18.015Z,34.90
2023-04-29T21:20:46.435Z,39.92
2023-04-29T21:23:14.531Z,39.55
2023-04-29T21:25:44.233Z,38.88
2023-04-29T21:28:13.865Z,36.40
2023-04-29T21:30:43.052Z,35.80
2023-04-29T21:33:11.298Z,33.67
2023-04-29T21:35:42.268Z,36.67
2023-04-29T21:38:10.688Z,39.97
2023-04-29T21:40:42.851Z,32.80
2023-04-29T21:43:12.863Z,36.20
2023-04-29T21:45:41.887Z,41.17
2023-04-29T21:48:15.877Z,30.98
2023-04-29T21:50:44.865Z,30.05
2023-04-29T21:53:16.154Z,37.92
2023-04-29T21:55:45.109Z,33.85
2023-04-29T21:58:16.171Z,35.55
2023-04-29T22:00:58.117Z,36.70
2023-04-29T22:03:26.792Z,27.77
2023-04-29T22:05:55.186Z,29.27
2023-04-29T22:08:24.101Z,28.90
2023-04-29T22:10:52.281Z,30.58
2023-04-29T22:13:21.975Z,28.73
2023-04-29T22:15:50.143Z,27.92
2023-04-29T22:18:18.349Z,33.38
2023-04-29T22:20:46.397Z,34.47
2023-04-29T22:23:14.867Z,35.13
2023-04-29T22:25:43.079Z,28.70
2023-04-29T22:28:11.293Z,31.10
2023-04-29T22:30:42.927Z,36.30
2023-04-29T22:33:11.123Z,25.40
2023-04-29T22:35:39.332Z,31.38
2023-04-29T22:38:07.711Z,33.35
2023-04-29T22:40:37.052Z,31.15
2023-04-29T22:43:05.614Z,26.83
2023-04-29T22:45:33.649Z,34.78
2023-04-29T22:48:03.267Z,32.85
2023-04-29T22:50:31.407Z,24.35
2023-04-29T22:52:59.482Z,26.30
2023-04-29T22:55:27.811Z,29.20
2023-04-29T22:57:56.262Z,28.20
2023-04-29T23:00:24.613Z,27.42
2023-04-29T23:02:52.815Z,23.73
2023-04-29T23:05:22.626Z,26.60
2023-04-29T23:07:50.910Z,23.17
2023-04-29T23:10:19.165Z,26.48
2023-04-29T23:12:47.240Z,26.27
2023-04-29T23:15:15.351Z,22.67
2023-04-29T23:17:43.456Z,25.63
2023-04-29T23:20:13.311Z,25.83
2023-04-29T23:22:43.015Z,29.80
2023-04-29T23:25:11.074Z,22.35
2023-04-29T23:27:39.134Z,24.50
2023-04-29T23:30:08.956Z,22.23
2023-04-29T23:32:37.191Z,21.90
2023-04-29T23:35:05.724Z,23.55
2023-04-29T23:37:33.958Z,20.63
2023-04-29T23:40:04.819Z,21.63
2023-04-29T23:42:32.979Z,19.60
2023-04-29T23:45:01.278Z,22.05
2023-04-29T23:47:29.641Z,20.77
2023-04-29T23:49:57.661Z,20.67
2023-04-29T23:52:25.915Z,26.38
2023-04-29T23:54:53.965Z,17.90
2023-04-29T23:57:23.789Z,25.65
2023-04-29T23:59:53.207Z,18.40
